Time;durP1;ratioP1;P1;durP2;ratioP2;P2;SDS_P1;SDS_P2;PMS_P1;PMS_P2;Temp;Humidity;BMP_temperature;BMP_pressure;BME280_temperature;BME280_humidity;BME280_pressure;Samples;Min_cycle;Max_cycle;Signal;HPM_P1;HPM_P2
2022/06/08 00:02:03;;;;;;;23.75;13.35;;;14.20;99.90;;;;;;5039439;28;20029;-92
2022/06/08 00:04:29;;;;;;;25.70;15.05;;;14.20;99.90;;;;;;5040885;28;20044;-92
2022/06/08 00:06:55;;;;;;;25.45;13.20;;;14.20;99.90;;;;;;5061711;28;20028;-92
2022/06/08 00:09:21;;;;;;;23.58;14.48;;;14.30;99.90;;;;;;5062596;28;20023;-92
2022/06/08 00:11:47;;;;;;;23.35;13.07;;;14.30;99.90;;;;;;5062806;28;20119;-93
2022/06/08 00:14:14;;;;;;;24.58;12.68;;;14.30;99.90;;;;;;5062230;28;20020;-91
2022/06/08 00:16:41;;;;;;;18.40;12.95;;;14.30;99.90;;;;;;5060714;28;20595;-92
2022/06/08 00:19:06;;;;;;;19.17;11.25;;;14.30;99.90;;;;;;5061051;28;20044;-93
2022/06/08 00:21:35;;;;;;;20.77;10.50;;;14.30;99.90;;;;;;5061207;28;20083;-93
2022/06/08 00:24:01;;;;;;;22.17;10.80;;;14.30;99.90;;;;;;5060760;28;20025;-91
2022/06/08 00:26:27;;;;;;;17.15;10.18;;;14.30;99.90;;;;;;5068508;28;20029;-93
2022/06/08 00:28:54;;;;;;;17.13;10.70;;;14.20;99.90;;;;;;5064486;28;20040;-93
2022/06/08 00:31:21;;;;;;;15.43;9.82;;;14.20;99.90;;;;;;5063167;28;20047;-93
2022/06/08 00:33:47;;;;;;;14.43;10.50;;;14.20;99.90;;;;;;5063596;28;20047;-92
2022/06/08 00:36:12;;;;;;;17.50;11.38;;;14.20;99.90;;;;;;5063514;28;20036;-92
2022/06/08 00:38:38;;;;;;;15.70;10.30;;;14.10;99.90;;;;;;5071102;28;20029;-92
2022/06/08 00:41:13;;;;;;;15.98;9.38;;;14.10;99.90;;;;;;5070550;28;20062;-94
2022/06/08 00:43:39;;;;;;;17.23;11.77;;;14.10;99.90;;;;;;5065697;28;20020;-93
2022/06/08 00:46:08;;;;;;;16.35;12.02;;;14.10;99.90;;;;;;5062605;28;20054;-93
2022/06/08 00:48:42;;;;;;;21.73;12.55;;;14.10;99.90;;;;;;5061481;28;20035;-93
2022/06/08 00:51:08;;;;;;;22.13;12.35;;;14.10;99.90;;;;;;5062423;28;20028;-94
2022/06/08 00:53:40;;;;;;;25.02;13.45;;;14.10;99.90;;;;;;5059919;28;20020;-93
2022/06/08 00:56:14;;;;;;;21.10;12.77;;;14.10;99.90;;;;;;5058642;28;20040;-93
2022/06/08 00:58:39;;;;;;;23.25;13.18;;;14.10;99.90;;;;;;5057387;28;20039;-92
2022/06/08 01:01:05;;;;;;;25.70;13.95;;;14.00;99.90;;;;;;5059765;28;20088;-93
2022/06/08 01:03:31;;;;;;;23.98;13.98;;;14.10;99.90;;;;;;5060551;28;20145;-93
2022/06/08 01:06:15;;;;;;;24.85;13.98;;;14.00;99.90;;;;;;5044758;28;20088;-93
2022/06/08 01:08:49;;;;;;;28.95;14.95;;;14.00;99.90;;;;;;5037961;28;20032;-94
2022/06/08 01:11:27;;;;;;;26.55;14.82;;;14.00;99.90;;;;;;5037558;28;20029;-93
2022/06/08 01:13:57;;;;;;;26.08;14.57;;;14.10;99.90;;;;;;5037886;28;20029;-93
2022/06/08 01:16:23;;;;;;;26.35;15.05;;;14.00;99.90;;;;;;5038070;28;20044;-93
2022/06/08 01:18:49;;;;;;;26.67;13.82;;;14.10;99.90;;;;;;5040781;28;20455;-94
2022/06/08 01:21:20;;;;;;;26.45;14.50;;;14.10;99.90;;;;;;5042541;28;20029;-93
2022/06/08 01:23:48;;;;;;;28.40;14.73;;;14.10;99.90;;;;;;5052664;28;20017;-93
2022/06/08 01:26:24;;;;;;;25.05;15.45;;;14.10;99.90;;;;;;5052921;28;20013;-94
2022/06/08 01:29:08;;;;;;;29.98;14.45;;;14.10;99.90;;;;;;5038375;28;20195;-93
2022/06/08 01:32:00;;;;;;;23.38;12.80;;;14.10;99.90;;;;;;5037754;28;20059;-93
2022/06/08 01:34:55;;;;;;;18.98;11.50;;;14.10;99.90;;;;;;5022210;28;20041;-93
2022/06/08 01:37:48;;;;;;;21.95;11.27;;;14.10;99.90;;;;;;5037384;28;20036;-93
2022/06/08 01:40:23;;;;;;;24.13;12.35;;;14.10;99.90;;;;;;5037634;28;20233;-93
2022/06/08 01:43:11;;;;;;;16.88;11.02;;;14.10;99.90;;;;;;5055140;28;20025;-94
2022/06/08 01:46:14;;;;;;;18.88;11.23;;;14.10;99.90;;;;;;5037652;28;20116;-95
2022/06/08 01:49:04;;;;;;;16.73;9.15;;;14.10;99.90;;;;;;5036855;28;20025;-94
2022/06/08 01:51:58;;;;;;;13.77;9.17;;;14.10;99.90;;;;;;5036468;28;20025;-94
2022/06/08 01:54:38;;;;;;;22.70;9.00;;;14.10;99.90;;;;;;5036274;28;20033;-94
2022/06/08 01:57:30;;;;;;;19.38;8.90;;;14.10;99.90;;;;;;5036736;28;20166;-94
2022/06/08 02:00:13;;;;;;;13.35;8.45;;;14.10;99.90;;;;;;5001293;28;20040;-93
2022/06/08 02:02:48;;;;;;;14.80;8.32;;;14.10;99.90;;;;;;5035966;28;20471;-94
2022/06/08 02:05:21;;;;;;;13.27;7.45;;;14.10;99.90;;;;;;5043171;28;20052;-93
2022/06/08 02:07:56;;;;;;;14.00;8.52;;;14.10;99.90;;;;;;5057256;28;20024;-93
2022/06/08 02:10:33;;;;;;;15.88;8.68;;;14.10;99.90;;;;;;5055692;28;20482;-94
2022/06/08 02:13:08;;;;;;;13.25;7.50;;;14.10;99.90;;;;;;5057729;28;20024;-94
2022/06/08 02:15:43;;;;;;;9.77;6.68;;;14.10;99.90;;;;;;5058849;28;20047;-94
2022/06/08 02:18:22;;;;;;;9.88;5.97;;;14.10;99.90;;;;;;5039469;28;20028;-93
2022/06/08 02:21:07;;;;;;;10.10;6.28;;;14.10;99.90;;;;;;5060320;28;20024;-95
2022/06/08 02:23:45;;;;;;;9.32;6.45;;;14.10;99.90;;;;;;5061830;28;20044;-95
2022/06/08 02:26:19;;;;;;;9.70;6.35;;;14.10;99.90;;;;;;5060148;28;20032;-94
2022/06/08 02:29:10;;;;;;;10.48;6.00;;;14.10;99.90;;;;;;5059750;28;20068;-91
2022/06/08 02:31:49;;;;;;;8.45;4.68;;;14.10;99.90;;;;;;5059463;28;20464;-93
2022/06/08 02:34:29;;;;;;;9.40;5.22;;;14.10;99.90;;;;;;5059214;28;20032;-94
2022/06/08 02:37:23;;;;;;;8.18;5.05;;;14.10;99.90;;;;;;5059536;28;20036;-93
2022/06/08 02:40:00;;;;;;;8.90;4.32;;;14.10;99.90;;;;;;5059134;28;20025;-93
2022/06/08 02:42:38;;;;;;;7.57;4.15;;;14.00;99.90;;;;;;5059307;28;20081;-94
2022/06/08 02:45:14;;;;;;;5.80;3.50;;;14.10;99.90;;;;;;5059630;28;20028;-92
2022/06/08 02:47:44;;;;;;;8.30;3.60;;;14.10;99.90;;;;;;5059825;28;20016;-93
2022/06/08 02:50:17;;;;;;;7.40;3.53;;;14.10;99.90;;;;;;5062060;28;20021;-94
2022/06/08 02:52:46;;;;;;;4.40;3.25;;;14.00;99.90;;;;;;5061162;28;20028;-92
2022/06/08 02:55:40;;;;;;;4.70;3.15;;;14.00;99.90;;;;;;5058848;28;20120;-92
2022/06/08 02:58:22;;;;;;;4.88;2.88;;;14.00;99.90;;;;;;5058568;28;20032;-92
2022/06/08 03:01:00;;;;;;;5.22;2.88;;;14.00;99.90;;;;;;5059059;28;20028;-93
2022/06/08 03:03:42;;;;;;;7.35;3.30;;;13.90;99.90;;;;;;5058308;28;20033;-94
2022/06/08 03:06:15;;;;;;;3.00;2.70;;;13.90;99.90;;;;;;5058436;28;20136;-94
2022/06/08 03:08:47;;;;;;;4.38;2.88;;;13.90;99.90;;;;;;5058551;28;20024;-93
2022/06/08 03:11:14;;;;;;;3.53;2.65;;;13.90;99.90;;;;;;5058320;28;20031;-93
2022/06/08 03:13:52;;;;;;;4.03;2.60;;;13.80;99.90;;;;;;5058258;28;20098;-94
2022/06/08 03:16:30;;;;;;;5.82;2.70;;;13.80;99.90;;;;;;5058220;28;20113;-94
2022/06/08 03:18:57;;;;;;;5.60;2.60;;;13.80;99.90;;;;;;5058681;28;20028;-92
2022/06/08 03:21:24;;;;;;;6.18;2.60;;;13.70;99.90;;;;;;5058294;28;20028;-92
2022/06/08 03:23:49;;;;;;;3.65;2.22;;;13.70;99.90;;;;;;5076157;28;20120;-94
2022/06/08 03:26:17;;;;;;;5.10;2.05;;;13.70;99.90;;;;;;5058842;28;20056;-93
2022/06/08 03:28:43;;;;;;;2.80;1.65;;;13.70;99.90;;;;;;5058673;28;20062;-95
2022/06/08 03:31:09;;;;;;;2.20;1.70;;;13.70;99.90;;;;;;5057307;28;20028;-95
2022/06/08 03:33:35;;;;;;;4.00;1.83;;;13.70;99.90;;;;;;5041832;28;20558;-93
2022/06/08 03:36:00;;;;;;;2.50;1.73;;;13.70;99.90;;;;;;5058281;28;20466;-93
2022/06/08 03:38:26;;;;;;;4.50;1.80;;;13.60;99.90;;;;;;5057872;28;20077;-93
2022/06/08 03:40:52;;;;;;;2.05;1.67;;;13.60;99.90;;;;;;5058253;28;20020;-95
2022/06/08 03:43:19;;;;;;;2.75;1.67;;;13.60;99.90;;;;;;5058770;28;20507;-93
2022/06/08 03:45:49;;;;;;;3.58;2.08;;;13.60;99.90;;;;;;5058167;28;20454;-94
2022/06/08 03:48:15;;;;;;;3.53;1.60;;;13.60;99.90;;;;;;5057718;28;20498;-95
2022/06/08 03:50:43;;;;;;;2.65;2.10;;;13.60;99.90;;;;;;5057895;28;20350;-93
2022/06/08 03:53:22;;;;;;;2.45;1.55;;;13.60;99.90;;;;;;5057656;28;20078;-93
2022/06/08 03:55:52;;;;;;;2.97;1.80;;;13.60;99.90;;;;;;5057989;28;20037;-93
2022/06/08 03:58:19;;;;;;;5.13;1.92;;;13.60;99.90;;;;;;5058645;28;20017;-93
2022/06/08 04:00:45;;;;;;;3.60;2.05;;;13.50;99.90;;;;;;5057508;28;20082;-93
2022/06/08 04:03:11;;;;;;;2.70;1.70;;;13.60;99.90;;;;;;5057461;28;20021;-94
2022/06/08 04:05:38;;;;;;;3.67;1.83;;;13.60;99.90;;;;;;5057839;28;20116;-93
2022/06/08 04:08:06;;;;;;;3.42;1.92;;;13.60;99.90;;;;;;5063682;28;20025;-94
2022/06/08 04:10:33;;;;;;;3.80;1.98;;;13.60;99.90;;;;;;5059200;28;20093;-95
2022/06/08 04:12:59;;;;;;;2.42;2.00;;;13.70;99.90;;;;;;5058741;28;20017;-94
2022/06/08 04:15:44;;;;;;;2.15;1.92;;;13.70;99.90;;;;;;5059312;28;20028;-92
2022/06/08 04:18:21;;;;;;;1.90;1.60;;;13.70;99.90;;;;;;5067841;28;20004;-93
2022/06/08 04:20:52;;;;;;;2.20;2.00;;;13.70;99.90;;;;;;5077922;28;20033;-96
2022/06/08 04:23:19;;;;;;;3.30;2.25;;;13.80;99.90;;;;;;5060457;28;20047;-95
2022/06/08 04:25:45;;;;;;;3.53;2.30;;;13.70;99.90;;;;;;5057982;28;20029;-93
2022/06/08 04:28:15;;;;;;;4.45;1.80;;;13.70;99.90;;;;;;5058081;28;20509;-94
2022/06/08 04:30:41;;;;;;;2.85;2.30;;;13.80;99.90;;;;;;5041544;28;20102;-94
2022/06/08 04:33:07;;;;;;;1.83;1.30;;;13.80;99.90;;;;;;5041077;28;20438;-95
2022/06/08 04:35:34;;;;;;;3.05;1.77;;;13.80;99.90;;;;;;5057232;28;20040;-94
2022/06/08 04:38:00;;;;;;;2.42;2.08;;;13.80;99.90;;;;;;5057993;28;20021;-93
2022/06/08 04:40:27;;;;;;;2.65;2.25;;;13.90;99.90;;;;;;5058348;28;20032;-94
2022/06/08 04:42:53;;;;;;;5.55;2.30;;;13.90;99.90;;;;;;5057245;28;20017;-94
2022/06/08 04:45:19;;;;;;;4.28;2.50;;;13.90;99.90;;;;;;5056467;28;20114;-95
2022/06/08 04:47:45;;;;;;;3.67;2.53;;;13.90;99.90;;;;;;5057265;28;20048;-94
2022/06/08 04:50:11;;;;;;;4.80;3.17;;;13.90;99.90;;;;;;5056719;28;20024;-94
2022/06/08 04:52:38;;;;;;;3.40;2.95;;;13.90;99.90;;;;;;5057093;28;20028;-95
2022/06/08 04:55:07;;;;;;;3.15;1.50;;;13.90;99.90;;;;;;5057051;28;20410;-93
2022/06/08 04:57:37;;;;;;;4.22;1.85;;;13.90;99.90;;;;;;5056912;28;20098;-93
2022/06/08 05:00:09;;;;;;;6.57;3.17;;;13.90;99.90;;;;;;5041652;28;20029;-94
2022/06/08 05:02:44;;;;;;;4.25;2.90;;;13.90;99.90;;;;;;5056808;28;20028;-94
2022/06/08 05:05:12;;;;;;;4.00;2.88;;;13.90;99.90;;;;;;5057159;28;20071;-93
2022/06/08 05:07:39;;;;;;;5.15;3.13;;;13.90;99.90;;;;;;5057455;28;20035;-94
2022/06/08 05:10:05;;;;;;;4.60;2.45;;;13.90;99.90;;;;;;5057203;28;20495;-94
2022/06/08 05:12:31;;;;;;;4.53;2.85;;;13.90;99.90;;;;;;5057412;28;20023;-93
2022/06/08 05:14:57;;;;;;;3.88;3.13;;;14.00;99.90;;;;;;5062289;28;20045;-96
2022/06/08 05:17:24;;;;;;;6.72;2.70;;;14.00;99.90;;;;;;5057079;28;20020;-92
2022/06/08 05:19:50;;;;;;;4.45;2.97;;;14.00;99.90;;;;;;5056837;28;20498;-93
2022/06/08 05:22:16;;;;;;;5.63;3.30;;;14.00;99.90;;;;;;5057321;28;20024;-95
2022/06/08 05:24:41;;;;;;;4.00;2.25;;;14.00;99.90;;;;;;5056616;28;20027;-92
2022/06/08 05:27:07;;;;;;;4.10;2.92;;;14.10;99.90;;;;;;5058625;28;20339;-94
2022/06/08 05:29:33;;;;;;;5.15;3.47;;;14.10;99.90;;;;;;5057099;28;20074;-93
2022/06/08 05:31:59;;;;;;;4.63;3.25;;;14.10;99.90;;;;;;5058853;28;20450;-93
2022/06/08 05:34:24;;;;;;;6.22;3.20;;;14.10;99.90;;;;;;5060792;28;20033;-93
2022/06/08 05:36:54;;;;;;;4.47;3.28;;;14.10;99.90;;;;;;5057599;28;20037;-93
2022/06/08 05:39:26;;;;;;;4.25;2.85;;;14.10;99.90;;;;;;5057750;28;20036;-93
2022/06/08 05:41:51;;;;;;;5.22;3.03;;;14.10;99.90;;;;;;5057274;28;20048;-93
2022/06/08 05:44:20;;;;;;;4.60;3.22;;;14.10;99.90;;;;;;5057626;28;20016;-93
2022/06/08 05:46:50;;;;;;;5.28;3.55;;;14.10;99.90;;;;;;5059832;28;20067;-94
2022/06/08 05:49:16;;;;;;;5.75;3.15;;;14.20;99.90;;;;;;5059769;28;20059;-94
2022/06/08 05:51:43;;;;;;;5.70;2.72;;;14.20;99.90;;;;;;5056376;28;20051;-93
2022/06/08 05:54:09;;;;;;;4.63;2.42;;;14.20;99.90;;;;;;5056642;28;20033;-92
2022/06/08 05:56:35;;;;;;;4.85;2.42;;;14.30;99.90;;;;;;5078990;28;20039;-93
2022/06/08 05:59:01;;;;;;;3.35;1.95;;;14.30;99.90;;;;;;5060687;28;20024;-94
2022/06/08 06:01:27;;;;;;;3.50;1.85;;;14.30;99.90;;;;;;5060557;28;20036;-92
2022/06/08 06:03:53;;;;;;;3.40;1.30;;;14.40;99.90;;;;;;5060089;28;20017;-93
2022/06/08 06:06:19;;;;;;;2.53;1.52;;;14.50;99.90;;;;;;5060778;28;20143;-95
2022/06/08 06:08:47;;;;;;;1.75;1.20;;;14.50;99.90;;;;;;5064058;28;20025;-93
2022/06/08 06:11:14;;;;;;;5.60;1.25;;;14.50;99.90;;;;;;5071590;28;20028;-94
2022/06/08 06:13:41;;;;;;;1.92;1.13;;;14.60;99.90;;;;;;5075503;28;20029;-92
2022/06/08 06:16:07;;;;;;;5.15;1.35;;;14.70;99.90;;;;;;5076181;28;20051;-93
2022/06/08 06:18:34;;;;;;;4.20;1.40;;;14.80;99.90;;;;;;5079783;28;20092;-93
2022/06/08 06:20:59;;;;;;;6.13;1.40;;;14.90;99.90;;;;;;5073223;28;20025;-95
2022/06/08 06:23:27;;;;;;;1.80;1.10;;;15.10;99.90;;;;;;5052233;28;20070;-94
2022/06/08 06:25:53;;;;;;;1.88;1.10;;;15.20;99.90;;;;;;5073100;28;20085;-93
2022/06/08 06:28:19;;;;;;;3.15;1.23;;;15.40;99.90;;;;;;5099778;28;20009;-94
2022/06/08 06:30:45;;;;;;;4.95;1.10;;;15.40;99.90;;;;;;5074417;28;20027;-95
2022/06/08 06:33:13;;;;;;;1.00;0.90;;;15.50;99.90;;;;;;5076755;28;20033;-95
2022/06/08 06:35:41;;;;;;;1.38;0.80;;;15.50;99.90;;;;;;5069683;28;20040;-94
2022/06/08 06:38:08;;;;;;;3.97;1.00;;;15.50;99.90;;;;;;5077322;28;20020;-93
2022/06/08 06:40:34;;;;;;;2.20;0.80;;;15.50;99.90;;;;;;5078666;28;20072;-93
2022/06/08 06:43:01;;;;;;;3.20;0.90;;;15.50;99.90;;;;;;5078514;28;20036;-96
2022/06/08 06:45:27;;;;;;;1.52;0.77;;;15.50;99.90;;;;;;5074380;28;20048;-94
2022/06/08 06:47:53;;;;;;;1.48;0.80;;;15.50;99.90;;;;;;5071994;28;20035;-95
2022/06/08 06:50:23;;;;;;;1.90;1.00;;;15.40;99.90;;;;;;5067832;28;20020;-94
2022/06/08 06:52:49;;;;;;;2.70;1.00;;;15.40;99.90;;;;;;5074009;28;20008;-96
2022/06/08 06:55:35;;;;;;;1.23;0.90;;;15.40;99.90;;;;;;5074419;28;20052;-92
2022/06/08 06:58:02;;;;;;;1.17;0.70;;;15.40;99.90;;;;;;5066407;28;20032;-95
2022/06/08 07:00:28;;;;;;;2.28;0.80;;;15.40;99.90;;;;;;5061466;28;20060;-95
2022/06/08 07:02:58;;;;;;;1.50;0.90;;;15.40;99.90;;;;;;5060023;28;20021;-94
2022/06/08 07:05:33;;;;;;;1.52;1.00;;;15.50;99.90;;;;;;5059781;28;20044;-94
2022/06/08 07:08:06;;;;;;;0.98;0.80;;;15.50;99.90;;;;;;5065321;28;20048;-95
2022/06/08 07:10:33;;;;;;;3.53;0.43;;;15.50;99.90;;;;;;5068261;28;20032;-94
2022/06/08 07:13:02;;;;;;;2.08;0.32;;;15.40;99.90;;;;;;5074176;28;20037;-94
2022/06/08 07:15:34;;;;;;;1.23;0.32;;;15.40;99.90;;;;;;5078081;28;20040;-95
2022/06/08 07:18:07;;;;;;;0.47;0.30;;;15.30;99.90;;;;;;5064164;28;20481;-94
2022/06/08 07:20:33;;;;;;;3.40;0.47;;;15.30;99.90;;;;;;5059385;28;20489;-94
2022/06/08 07:22:59;;;;;;;2.22;0.93;;;15.20;99.90;;;;;;5059376;28;20024;-93
2022/06/08 07:25:28;;;;;;;0.35;0.25;;;15.20;99.90;;;;;;5042887;28;20043;-92
2022/06/08 07:27:55;;;;;;;1.33;0.45;;;15.20;99.90;;;;;;5059933;28;20056;-93
2022/06/08 07:30:22;;;;;;;2.65;0.40;;;15.30;99.90;;;;;;5064831;28;20480;-93
2022/06/08 07:32:47;;;;;;;1.60;0.30;;;15.30;99.90;;;;;;5059546;28;20127;-92
2022/06/08 07:35:18;;;;;;;1.35;0.40;;;15.40;99.90;;;;;;5067815;28;20062;-92
2022/06/08 07:38:02;;;;;;;2.08;0.32;;;15.40;99.90;;;;;;5065335;28;20035;-94
2022/06/08 07:40:46;;;;;;;0.95;0.60;;;15.60;99.90;;;;;;5060729;28;20025;-94
2022/06/08 07:43:26;;;;;;;0.80;0.15;;;15.60;99.90;;;;;;5058923;28;20025;-93
2022/06/08 07:46:09;;;;;;;0.95;0.32;;;15.60;99.90;;;;;;5017155;28;20021;-95
2022/06/08 07:51:25;;;;;;;2.80;0.38;;;15.70;99.90;;;;;;5083300;28;20063;-95
2022/06/08 07:54:00;;;;;;;2.58;0.77;;;15.60;99.90;;;;;;5066210;28;20032;-96
2022/06/08 07:56:33;;;;;;;0.68;0.20;;;15.60;99.90;;;;;;5083665;28;20041;-94
2022/06/08 07:59:01;;;;;;;6.15;0.55;;;15.70;99.90;;;;;;5061885;28;20084;-95
2022/06/08 08:01:27;;;;;;;0.93;0.25;;;15.70;99.90;;;;;;5062071;28;20119;-95
2022/06/08 08:03:53;;;;;;;1.75;0.30;;;15.80;99.90;;;;;;5061459;28;20061;-93
2022/06/08 08:06:20;;;;;;;0.22;0.22;;;15.90;99.90;;;;;;5059859;28;20490;-95
2022/06/08 08:08:45;;;;;;;2.80;0.50;;;15.90;99.90;;;;;;5060077;28;20043;-93
2022/06/08 08:11:11;;;;;;;2.72;0.50;;;16.00;99.90;;;;;;5058984;28;20025;-93
2022/06/08 08:13:37;;;;;;;0.10;0.10;;;16.00;99.90;;;;;;5058871;28;20040;-95
2022/06/08 08:16:05;;;;;;;3.65;0.20;;;16.10;99.90;;;;;;5060113;28;20114;-93
2022/06/08 08:18:31;;;;;;;0.88;0.20;;;16.20;99.90;;;;;;5043116;28;20027;-93
2022/06/08 08:20:57;;;;;;;1.70;0.52;;;16.20;99.90;;;;;;5059198;28;20067;-92
2022/06/08 08:23:23;;;;;;;0.20;0.20;;;16.30;99.90;;;;;;5077681;28;20031;-93
2022/06/08 08:25:53;;;;;;;2.25;0.25;;;16.40;99.90;;;;;;5042965;28;20444;-92
2022/06/08 08:28:20;;;;;;;2.38;0.30;;;16.40;99.90;;;;;;5042198;28;20024;-92
2022/06/08 08:30:46;;;;;;;2.42;0.30;;;16.50;99.90;;;;;;5059516;28;20101;-91
2022/06/08 08:33:12;;;;;;;0.73;0.20;;;16.50;99.90;;;;;;5058938;28;20103;-92
2022/06/08 08:35:38;;;;;;;0.38;0.30;;;16.50;99.90;;;;;;5059459;28;20072;-91
2022/06/08 08:38:04;;;;;;;1.90;0.30;;;16.50;99.90;;;;;;5059371;28;20407;-93
2022/06/08 08:40:51;;;;;;;0.80;0.32;;;16.70;99.90;;;;;;5061865;28;20028;-92
2022/06/08 08:43:23;;;;;;;1.55;0.30;;;16.80;99.90;;;;;;5059149;28;20031;-94
2022/06/08 08:46:08;;;;;;;0.80;0.30;;;16.90;99.90;;;;;;5059161;28;20032;-94
2022/06/08 08:48:52;;;;;;;0.70;0.20;;;16.90;99.90;;;;;;5059445;28;20111;-93
2022/06/08 08:51:25;;;;;;;2.13;0.40;;;17.00;99.90;;;;;;5058065;28;20035;-94
2022/06/08 08:54:05;;;;;;;0.68;0.22;;;17.10;99.90;;;;;;5059428;28;20103;-93
2022/06/08 08:56:36;;;;;;;0.98;0.40;;;17.20;99.90;;;;;;5058845;28;20040;-92
2022/06/08 08:59:15;;;;;;;0.43;0.20;;;17.20;99.90;;;;;;5059421;28;20123;-94
2022/06/08 09:01:52;;;;;;;1.10;0.50;;;17.20;99.90;;;;;;5059120;28;20025;-94
2022/06/08 09:04:33;;;;;;;2.08;0.90;;;17.30;99.90;;;;;;5031147;28;20470;-93
2022/06/08 09:07:24;;;;;;;2.15;0.43;;;17.30;99.90;;;;;;5060943;28;20513;-93
2022/06/08 09:10:07;;;;;;;2.28;1.08;;;17.40;99.90;;;;;;5059077;28;20028;-94
2022/06/08 09:12:46;;;;;;;1.17;0.28;;;17.40;99.90;;;;;;4978897;28;20038;-93
2022/06/08 09:15:18;;;;;;;1.15;0.50;;;17.40;99.90;;;;;;4982618;28;20435;-93
2022/06/08 09:17:56;;;;;;;2.95;0.40;;;17.40;99.90;;;;;;4983748;28;20041;-95
2022/06/08 09:20:32;;;;;;;1.98;0.35;;;17.40;99.90;;;;;;4984628;28;20035;-93
2022/06/08 09:23:25;;;;;;;3.10;0.50;;;17.50;99.90;;;;;;4981381;28;20030;-94
2022/06/08 09:26:07;;;;;;;1.88;0.28;;;17.70;99.90;;;;;;4979822;28;20019;-93
2022/06/08 09:28:34;;;;;;;0.20;0.20;;;17.90;99.90;;;;;;4979211;28;20508;-94
2022/06/08 09:31:33;;;;;;;1.55;0.50;;;18.00;99.90;;;;;;4981301;28;20022;-92
2022/06/08 09:34:30;;;;;;;1.25;0.30;;;18.00;99.90;;;;;;4957764;28;20493;-92
2022/06/08 09:37:30;;;;;;;0.10;0.10;;;18.10;99.90;;;;;;4963058;28;20034;-92
2022/06/08 09:40:03;;;;;;;2.60;0.50;;;18.30;99.90;;;;;;4949895;28;20038;-93
2022/06/08 09:43:06;;;;;;;1.65;0.38;;;18.30;99.90;;;;;;4992005;28;20031;-93
2022/06/08 09:51:25;;;;;;;0.95;0.50;;;18.40;99.90;;;;;;5029512;28;20537;-93
2022/06/08 09:52:26;;;;;;;1.20;0.60;;;18.70;99.90;;;;;;5037335;28;20112;-93
2022/06/08 09:55:24;;;;;;;1.00;0.40;;;18.70;99.90;;;;;;5020478;28;20032;-92
2022/06/08 09:58:33;;;;;;;1.50;0.40;;;18.60;99.90;;;;;;5021180;28;20033;-93
2022/06/08 10:01:35;;;;;;;1.63;0.40;;;18.60;99.90;;;;;;5021649;28;20518;-91
2022/06/08 10:04:38;;;;;;;0.63;0.40;;;18.70;99.90;;;;;;5006185;28;20044;-94
2022/06/08 10:07:20;;;;;;;0.43;0.30;;;18.90;99.90;;;;;;5026485;28;20441;-92
2022/06/08 10:10:07;;;;;;;1.10;0.30;;;19.00;99.90;;;;;;5025907;28;20064;-93
2022/06/08 10:12:38;;;;;;;0.55;0.20;;;18.90;99.90;;;;;;5026630;28;20026;-94
2022/06/08 10:15:26;;;;;;;0.95;0.35;;;18.90;99.80;;;;;;5026195;28;20045;-91
2022/06/08 10:18:19;;;;;;;1.95;0.32;;;19.00;98.90;;;;;;5024536;28;20056;-95
2022/06/08 10:20:59;;;;;;;1.45;0.38;;;18.90;98.70;;;;;;5050323;28;20029;-91
2022/06/08 10:23:37;;;;;;;2.78;0.40;;;18.70;98.60;;;;;;5062696;28;20436;-91
2022/06/08 10:27:02;;;;;;;1.65;0.50;;;18.60;99.10;;;;;;5062246;28;20029;-92
2022/06/08 10:29:42;;;;;;;2.40;0.32;;;18.50;99.20;;;;;;4980025;28;20031;-94
2022/06/08 10:32:29;;;;;;;1.52;0.30;;;18.40;99.90;;;;;;4962206;28;20034;-94
2022/06/08 10:35:13;;;;;;;0.95;0.20;;;18.30;99.90;;;;;;4962489;28;20038;-91
2022/06/08 10:37:43;;;;;;;0.35;0.15;;;18.20;99.90;;;;;;4962875;28;20027;-93
2022/06/08 10:40:24;;;;;;;0.47;0.17;;;18.00;99.90;;;;;;4961989;28;20034;-91
2022/06/08 10:42:51;;;;;;;4.75;1.33;;;17.70;99.90;;;;;;4962733;28;20129;-91
2022/06/08 10:45:23;;;;;;;2.30;0.82;;;17.50;99.90;;;;;;4962596;28;20045;-94
2022/06/08 10:48:13;;;;;;;3.58;0.63;;;17.20;99.90;;;;;;4962298;28;20583;-93
2022/06/08 10:50:43;;;;;;;1.70;0.70;;;17.00;99.90;;;;;;4963801;28;20146;-94
2022/06/08 10:56:42;;;;;;;1.85;0.70;;;17.30;99.90;;;;;;4979933;28;20053;-94
2022/06/08 10:59:45;;;;;;;4.75;1.00;;;17.60;99.90;;;;;;4968170;28;20043;-93
2022/06/08 11:02:15;;;;;;;2.63;1.20;;;17.70;99.90;;;;;;4944803;29;20043;-94
2022/06/08 11:05:36;;;;;;;4.75;1.00;;;17.70;99.90;;;;;;4984490;28;20036;-92
2022/06/08 11:08:20;;;;;;;;;;;17.50;99.90;;;;;;5020888;28;20132;-94
2022/06/08 11:10:58;;;;;;;3.55;1.25;;;17.40;99.90;;;;;;5024103;28;19909;-93
2022/06/08 11:13:39;;;;;;;5.85;0.95;;;17.20;99.90;;;;;;5024402;28;20117;-93
2022/06/08 11:16:27;;;;;;;3.83;0.80;;;17.00;99.90;;;;;;5021858;28;20053;-91
2022/06/08 11:19:10;;;;;;;1.13;0.70;;;16.90;99.90;;;;;;5021944;28;20036;-93
2022/06/08 11:22:14;;;;;;;2.70;0.70;;;16.90;99.90;;;;;;5022610;28;20069;-93
2022/06/08 11:25:11;;;;;;;4.60;1.00;;;16.90;99.90;;;;;;5004581;28;20052;-93
2022/06/08 11:27:39;;;;;;;2.67;0.98;;;16.90;99.90;;;;;;5007071;28;20045;-94
2022/06/08 11:30:23;;;;;;;4.00;0.82;;;17.10;99.90;;;;;;5023718;28;20534;-94
2022/06/08 11:32:52;;;;;;;3.75;0.93;;;17.20;99.90;;;;;;5040553;28;20036;-94
2022/06/08 11:35:48;;;;;;;3.67;0.85;;;17.50;99.90;;;;;;5062328;28;20033;-94
2022/06/08 11:38:24;;;;;;;3.72;1.13;;;17.60;99.90;;;;;;5063160;28;20020;-91
2022/06/08 11:41:24;;;;;;;2.10;0.85;;;17.70;99.90;;;;;;5080865;28;20147;-93
2022/06/08 11:43:52;;;;;;;1.77;1.02;;;17.80;99.90;;;;;;5051553;28;20033;-94
2022/06/08 11:46:38;;;;;;;2.97;0.98;;;17.80;99.90;;;;;;5064795;28;20470;-94
2022/06/08 11:49:25;;;;;;;2.53;1.50;;;17.80;99.90;;;;;;5082250;28;20098;-95
2022/06/08 11:51:54;;;;;;;6.70;1.60;;;17.90;99.90;;;;;;5062395;28;20078;-94
2022/06/08 11:54:32;;;;;;;2.70;1.38;;;17.90;99.90;;;;;;5066815;28;20020;-95
2022/06/08 11:57:10;;;;;;;6.88;1.50;;;18.00;99.90;;;;;;5064161;28;20052;-94
2022/06/08 11:59:43;;;;;;;4.32;1.52;;;18.20;99.90;;;;;;5064711;28;20024;-94
2022/06/08 12:02:25;;;;;;;4.30;1.50;;;18.20;99.90;;;;;;5055406;28;20048;-94
2022/06/08 12:04:55;;;;;;;7.32;1.42;;;18.20;99.90;;;;;;5051204;28;20406;-94
2022/06/08 12:07:36;;;;;;;6.50;1.27;;;18.00;99.90;;;;;;5049014;28;20045;-94
2022/06/08 12:10:04;;;;;;;6.95;1.40;;;17.80;99.90;;;;;;5046656;28;20021;-93
2022/06/08 12:12:34;;;;;;;4.20;1.50;;;17.70;99.90;;;;;;5050013;28;20053;-93
2022/06/08 12:15:34;;;;;;;2.72;1.80;;;17.70;99.90;;;;;;5047266;28;20062;-93
2022/06/08 12:18:30;;;;;;;;;;;17.60;99.90;;;;;;5044785;28;20028;-92
2022/06/08 12:21:20;;;;;;;3.63;0.98;;;17.60;99.90;;;;;;5046038;28;19917;-94
2022/06/08 12:24:07;;;;;;;2.65;1.08;;;17.50;99.90;;;;;;5061199;28;20043;-95
2022/06/08 12:26:45;;;;;;;2.85;1.00;;;17.60;99.90;;;;;;5042054;28;20033;-95
2022/06/08 12:29:37;;;;;;;3.75;1.02;;;17.50;99.90;;;;;;5043117;28;20123;-93
2022/06/08 12:32:36;;;;;;;3.97;1.08;;;17.60;99.90;;;;;;5031376;28;20037;-94
2022/06/08 12:35:40;;;;;;;5.00;1.40;;;17.70;99.90;;;;;;5043035;28;20095;-94
2022/06/08 12:38:20;;;;;;;2.55;1.23;;;18.00;99.90;;;;;;5044623;28;20544;-91
2022/06/08 12:41:08;;;;;;;3.45;1.10;;;18.50;99.90;;;;;;5057079;28;20025;-94
2022/06/08 12:43:46;;;;;;;1.17;0.77;;;18.90;99.90;;;;;;5042855;28;20033;-94
2022/06/08 12:46:22;;;;;;;1.48;0.50;;;19.20;99.90;;;;;;5040263;28;20040;-93
2022/06/08 12:48:54;;;;;;;1.85;1.02;;;19.30;98.50;;;;;;5041842;28;20032;-92
2022/06/08 12:51:40;;;;;;;4.22;0.88;;;19.20;96.80;;;;;;5038859;28;20041;-93
2022/06/08 12:54:15;;;;;;;2.25;0.68;;;19.10;96.10;;;;;;5038663;28;20021;-94
2022/06/08 12:56:49;;;;;;;2.30;0.80;;;19.00;95.40;;;;;;5037579;28;20052;-93
2022/06/08 12:59:17;;;;;;;1.83;0.70;;;18.90;95.70;;;;;;5055259;28;20524;-93
2022/06/08 13:01:44;;;;;;;2.15;0.70;;;18.90;96.20;;;;;;5038863;28;20470;-95
2022/06/08 13:04:14;;;;;;;3.85;0.85;;;19.00;96.00;;;;;;5039353;28;20063;-94
2022/06/08 13:06:41;;;;;;;2.53;0.82;;;19.00;95.10;;;;;;5055395;28;20044;-93
2022/06/08 13:09:15;;;;;;;2.15;0.63;;;19.00;95.00;;;;;;5062831;28;20119;-93
2022/06/08 13:11:45;;;;;;;2.05;0.80;;;19.00;94.40;;;;;;5061883;28;20032;-96
2022/06/08 13:14:20;;;;;;;2.50;0.55;;;19.00;94.10;;;;;;5063237;28;20025;-94
2022/06/08 13:17:33;;;;;;;1.02;0.50;;;19.00;93.40;;;;;;5087212;28;20041;-94
2022/06/08 13:19:59;;;;;;;2.80;0.70;;;19.00;92.90;;;;;;5072894;28;20062;-93
2022/06/08 13:22:26;;;;;;;2.97;0.80;;;19.10;92.90;;;;;;5072756;28;20143;-92
2022/06/08 13:24:54;;;;;;;1.23;0.80;;;19.20;92.30;;;;;;5080103;28;20028;-94
2022/06/08 13:27:23;;;;;;;5.57;1.67;;;19.20;92.10;;;;;;5082611;28;20029;-91
2022/06/08 13:29:49;;;;;;;2.00;0.80;;;19.50;92.20;;;;;;5061683;28;20020;-93
2022/06/08 13:32:29;;;;;;;1.30;0.60;;;19.80;91.80;;;;;;5062854;28;20047;-95
2022/06/08 13:35:03;;;;;;;1.17;0.63;;;20.00;90.50;;;;;;5076606;28;20083;-93